Time;durP1;ratioP1;P1;durP2;ratioP2;P2;SDS_P1;SDS_P2;PMS_P1;PMS_P2;Temp;Humidity;BMP_temperature;BMP_pressure;BME280_temperature;BME280_humidity;BME280_pressure;Samples;Min_cycle;Max_cycle;Signal;HPM_P1;HPM_P2
2022/01/29 00:01:42;;;;;;;28.55;17.38;;;;;;;8.05;68.45;102899.06;5081685;28;20063;-60
2022/01/29 00:04:12;;;;;;;31.02;17.33;;;;;;;8.14;68.25;102924.06;5080631;28;20080;-60
2022/01/29 00:06:39;;;;;;;28.25;16.60;;;;;;;8.16;68.39;102924.75;5072519;28;20049;-60
2022/01/29 00:09:08;;;;;;;28.48;16.92;;;;;;;8.17;67.77;102923.78;5074652;28;20075;-60
2022/01/29 00:11:37;;;;;;;27.38;16.77;;;;;;;8.18;67.48;102913.91;5082189;28;20045;-60
2022/01/29 00:14:05;;;;;;;30.05;18.25;;;;;;;8.16;68.08;102912.22;5071950;28;20040;-60
2022/01/29 00:16:34;;;;;;;28.27;17.88;;;;;;;8.17;68.53;102907.69;5082547;28;20162;-58
2022/01/29 00:19:01;;;;;;;32.38;18.20;;;;;;;8.18;68.18;102901.34;5078636;28;20052;-60
2022/01/29 00:21:31;;;;;;;31.02;17.40;;;;;;;8.16;68.45;102889.94;5082313;28;20348;-59
2022/01/29 00:23:58;;;;;;;26.48;17.58;;;;;;;8.16;68.21;102897.97;5075184;28;20175;-60
2022/01/29 00:26:27;;;;;;;33.75;18.25;;;;;;;8.14;68.29;102895.47;5079666;28;20098;-60
2022/01/29 00:28:57;;;;;;;29.48;17.25;;;;;;;8.14;68.29;102884.75;5082008;28;20075;-60
2022/01/29 00:31:25;;;;;;;31.50;18.35;;;;;;;8.15;68.78;102880.22;5076749;28;20053;-60
2022/01/29 00:33:52;;;;;;;33.85;18.08;;;;;;;8.15;67.95;102883.75;5075037;28;20059;-60
2022/01/29 00:36:20;;;;;;;32.28;18.60;;;;;;;8.15;68.03;102883.75;5079906;28;20058;-60
2022/01/29 00:38:49;;;;;;;34.75;18.15;;;;;;;8.14;68.50;102881.22;5077060;28;20048;-61
2022/01/29 00:41:17;;;;;;;30.30;16.98;;;;;;;8.13;68.56;102867.00;5069019;28;20048;-60
2022/01/29 00:43:45;;;;;;;33.35;18.17;;;;;;;8.13;68.95;102875.03;5081265;28;20052;-60
2022/01/29 00:46:13;;;;;;;27.55;17.70;;;;;;;8.11;68.74;102863.63;5081432;28;20084;-60
2022/01/29 00:48:40;;;;;;;33.03;17.23;;;;;;;8.11;68.54;102877.03;5077494;28;20091;-60
2022/01/29 00:51:08;;;;;;;32.95;18.33;;;;;;;8.11;69.01;102866.31;5063517;28;20186;-60
2022/01/29 00:53:36;;;;;;;32.08;17.75;;;;;;;8.10;68.18;102869.16;5071657;28;20044;-60
2022/01/29 00:56:07;;;;;;;29.95;17.55;;;;;;;8.11;68.78;102866.31;5081526;28;20036;-59
2022/01/29 00:58:34;;;;;;;32.00;17.98;;;;;;;8.09;68.62;102854.91;5080895;28;20055;-60
2022/01/29 01:01:03;;;;;;;28.88;18.05;;;;;;;8.10;69.09;102853.91;5081341;28;20067;-60
2022/01/29 01:03:31;;;;;;;27.30;17.02;;;;;;;8.10;69.12;102848.56;5077712;28;20474;-60
2022/01/29 01:05:59;;;;;;;27.17;17.63;;;;;;;8.11;68.84;102852.09;5072452;28;20048;-60
2022/01/29 01:08:26;;;;;;;30.13;16.85;;;;;;;8.09;68.63;102843.38;5080405;28;20041;-60
2022/01/29 01:10:54;;;;;;;27.92;16.38;;;;;;;8.09;68.49;102846.03;5025823;28;20133;-60
2022/01/29 01:13:24;;;;;;;30.65;18.48;;;;;;;8.09;68.78;102844.19;5030830;28;20045;-60
2022/01/29 01:15:51;;;;;;;28.17;17.48;;;;;;;8.10;68.76;102839.69;5027481;28;20038;-60
2022/01/29 01:18:19;;;;;;;32.22;17.80;;;;;;;8.10;69.27;102824.47;5021491;28;20057;-60
2022/01/29 01:20:47;;;;;;;30.52;16.77;;;;;;;8.10;68.91;102826.28;5022334;28;20140;-60
2022/01/29 01:23:15;;;;;;;26.45;17.00;;;;;;;8.10;68.79;102813.75;5021058;28;20069;-60
2022/01/29 01:25:43;;;;;;;29.48;16.20;;;;;;;8.09;68.75;102803.19;5027036;28;20101;-59
2022/01/29 01:28:11;;;;;;;29.27;17.58;;;;;;;8.09;68.81;102795.16;5027821;28;20069;-60
2022/01/29 01:30:40;;;;;;;27.23;17.00;;;;;;;8.09;68.56;102795.16;5021551;28;20094;-59
2022/01/29 01:33:08;;;;;;;27.60;17.10;;;;;;;8.10;68.63;102783.44;5029056;28;20215;-59
2022/01/29 01:35:41;;;;;;;32.65;17.92;;;;;;;8.07;69.00;102776.56;5031539;28;20069;-60
2022/01/29 01:38:14;;;;;;;31.50;18.13;;;;;;;8.07;69.35;102768.53;5026332;28;20061;-60
2022/01/29 01:40:45;;;;;;;31.38;16.55;;;;;;;8.08;69.32;102780.09;5026257;28;20053;-60
2022/01/29 01:43:13;;;;;;;26.88;16.75;;;;;;;8.08;69.61;102774.72;5021308;28;20056;-60
2022/01/29 01:45:42;;;;;;;27.05;16.65;;;;;;;8.09;69.25;102771.06;5031197;28;20038;-60
2022/01/29 01:48:10;;;;;;;23.55;15.45;;;;;;;8.10;69.24;102767.38;5023206;28;20056;-60
2022/01/29 01:50:38;;;;;;;28.52;16.95;;;;;;;8.09;69.20;102768.38;5022915;28;20049;-60
2022/01/29 01:53:07;;;;;;;26.83;15.65;;;;;;;8.11;69.18;102771.75;5022356;28;20042;-60
2022/01/29 01:55:35;;;;;;;27.20;16.45;;;;;;;8.10;69.09;102757.50;5030768;28;20076;-60
2022/01/29 01:58:03;;;;;;;24.55;15.07;;;;;;;8.10;68.92;102765.53;5026563;28;20049;-60
2022/01/29 02:00:32;;;;;;;26.35;16.25;;;;;;;8.10;68.92;102756.66;5022314;28;20412;-60
2022/01/29 02:03:01;;;;;;;26.95;16.75;;;;;;;8.09;69.42;102750.47;5024438;28;20054;-59
2022/01/29 02:05:30;;;;;;;28.63;16.60;;;;;;;8.08;69.61;102750.63;5023550;28;20045;-60
2022/01/29 02:07:58;;;;;;;28.23;16.27;;;;;;;8.09;69.61;102746.97;5026550;28;20037;-60
2022/01/29 02:10:27;;;;;;;28.58;15.65;;;;;;;8.08;68.99;102746.13;5073224;28;20060;-60
2022/01/29 02:12:58;;;;;;;24.38;15.88;;;;;;;8.10;69.32;102743.28;5075245;28;20049;-60
2022/01/29 02:15:27;;;;;;;28.52;16.27;;;;;;;8.07;69.45;102727.53;5073764;28;20076;-60
2022/01/29 02:17:55;;;;;;;22.83;14.23;;;;;;;8.08;69.77;102718.50;5068775;28;20079;-59
2022/01/29 02:20:26;;;;;;;30.08;15.90;;;;;;;8.07;69.29;102709.63;5066670;28;20068;-60
2022/01/29 02:22:56;;;;;;;23.58;16.13;;;;;;;8.08;69.35;102713.16;5078932;28;20048;-60
2022/01/29 02:25:32;;;;;;;22.10;15.13;;;;;;;8.06;69.28;102713.31;5071093;28;20343;-60
2022/01/29 02:28:01;;;;;;;20.85;14.20;;;;;;;8.07;69.72;102716.81;5080408;28;20052;-59
2022/01/29 02:30:32;;;;;;;25.63;15.77;;;;;;;8.05;69.87;102705.44;5079694;28;20052;-59
2022/01/29 02:33:00;;;;;;;21.15;13.77;;;;;;;8.04;69.86;102709.09;5079722;28;20056;-59
2022/01/29 02:35:28;;;;;;;24.25;14.80;;;;;;;8.06;69.61;102704.44;5078603;28;20390;-60
2022/01/29 02:37:57;;;;;;;24.25;15.18;;;;;;;7.93;69.50;102688.81;5079166;28;20044;-59
2022/01/29 02:40:26;;;;;;;22.63;13.95;;;;;;;8.04;70.04;102709.94;5071057;28;20053;-59
2022/01/29 02:42:55;;;;;;;24.63;14.88;;;;;;;8.02;69.95;102690.53;5080024;28;20060;-58
2022/01/29 02:45:26;;;;;;;19.67;13.02;;;;;;;8.04;70.48;102698.41;5074998;28;20045;-59
2022/01/29 02:47:54;;;;;;;28.92;15.10;;;;;;;8.04;70.36;102703.75;5077853;28;20074;-59
2022/01/29 02:50:21;;;;;;;20.50;13.73;;;;;;;8.03;70.66;102702.91;5066431;28;20544;-60
2022/01/29 02:52:49;;;;;;;21.73;13.40;;;;;;;8.03;70.31;102702.06;5069455;28;20056;-59
2022/01/29 02:55:18;;;;;;;24.00;14.00;;;;;;;8.01;70.56;102696.88;5079923;28;20045;-59
2022/01/29 02:57:46;;;;;;;22.90;14.57;;;;;;;8.03;70.23;102696.72;5077567;28;20044;-60
2022/01/29 03:00:15;;;;;;;21.60;13.30;;;;;;;8.03;70.76;102689.53;5076357;28;20055;-59
2022/01/29 03:02:42;;;;;;;24.13;14.65;;;;;;;8.01;70.41;102691.53;5079260;28;20045;-59
2022/01/29 03:05:10;;;;;;;21.90;13.57;;;;;;;8.02;70.28;102685.16;5076586;28;20055;-58
2022/01/29 03:07:38;;;;;;;22.48;13.65;;;;;;;7.99;70.51;102681.97;5072378;28;20040;-60
2022/01/29 03:10:07;;;;;;;21.52;14.35;;;;;;;8.01;71.08;102693.34;5066714;28;20076;-59
2022/01/29 03:12:37;;;;;;;20.70;13.27;;;;;;;8.00;70.57;102683.66;5074299;28;20049;-59
2022/01/29 03:15:06;;;;;;;23.42;13.43;;;;;;;8.00;70.65;102678.28;5077865;28;20069;-57
2022/01/29 03:17:34;;;;;;;22.38;14.07;;;;;;;7.99;71.02;102684.66;5079286;28;20045;-60
2022/01/29 03:20:01;;;;;;;25.20;15.20;;;;;;;7.98;70.65;102673.09;5068350;28;20076;-59
2022/01/29 03:22:29;;;;;;;22.55;14.57;;;;;;;7.98;70.56;102673.09;5082527;28;20049;-60
2022/01/29 03:24:57;;;;;;;20.50;12.93;;;;;;;7.99;70.52;102673.94;5076301;28;20057;-59
2022/01/29 03:27:25;;;;;;;21.98;14.18;;;;;;;7.99;71.04;102665.91;5076569;28;20072;-59
2022/01/29 03:29:54;;;;;;;21.27;13.75;;;;;;;8.01;71.07;102647.84;5079205;28;20055;-59
2022/01/29 03:32:22;;;;;;;19.50;13.05;;;;;;;8.01;71.53;102651.34;5082213;28;20051;-59
2022/01/29 03:34:49;;;;;;;23.70;12.80;;;;;;;8.01;71.42;102646.00;5070285;28;20072;-60
2022/01/29 03:37:18;;;;;;;21.65;13.70;;;;;;;7.97;71.38;102635.78;5080566;28;20045;-59
2022/01/29 03:39:46;;;;;;;23.45;14.15;;;;;;;8.03;70.69;102638.66;5083132;28;20040;-60
2022/01/29 03:42:15;;;;;;;19.10;12.57;;;;;;;8.04;71.26;102642.16;5082665;28;20080;-60
2022/01/29 03:44:43;;;;;;;19.92;12.35;;;;;;;8.02;71.11;102641.50;5079224;28;20048;-59
2022/01/29 03:47:12;;;;;;;20.45;13.00;;;;;;;8.04;71.06;102631.47;5080118;28;20044;-59
2022/01/29 03:49:40;;;;;;;19.77;12.57;;;;;;;8.04;71.15;102629.63;5076282;28;20041;-60
2022/01/29 03:52:08;;;;;;;21.13;13.02;;;;;;;8.05;71.26;102630.47;5078439;28;20048;-60
2022/01/29 03:54:35;;;;;;;21.50;12.95;;;;;;;8.05;71.51;102612.56;5082453;28;20390;-59
2022/01/29 03:57:04;;;;;;;17.63;11.48;;;;;;;8.04;71.19;102612.72;5083248;28;20041;-60
2022/01/29 03:59:31;;;;;;;17.65;11.73;;;;;;;8.02;71.53;102612.88;5082572;28;20508;-60
2022/01/29 04:01:59;;;;;;;17.92;11.45;;;;;;;8.03;70.92;102622.59;5088714;28;20393;-59
2022/01/29 04:04:29;;;;;;;18.63;12.00;;;;;;;8.02;71.28;102610.19;5081212;28;20060;-60
2022/01/29 04:07:01;;;;;;;20.73;12.32;;;;;;;8.03;70.92;102611.88;5089311;28;20071;-60
2022/01/29 04:09:28;;;;;;;23.38;12.30;;;;;;;8.01;70.97;102618.41;5082626;28;20076;-59
2022/01/29 04:11:56;;;;;;;16.00;10.20;;;;;;;8.02;71.42;102612.88;5090225;28;20052;-59
2022/01/29 04:14:33;;;;;;;14.85;9.75;;;;;;;8.01;71.62;102618.41;5076418;28;20213;-59
2022/01/29 04:17:00;;;;;;;14.20;9.77;;;;;;;8.00;71.07;102614.88;5077515;28;20142;-57
2022/01/29 04:19:29;;;;;;;16.08;10.65;;;;;;;8.02;71.98;102625.44;5080962;28;20044;-59
2022/01/29 04:21:57;;;;;;;16.85;11.43;;;;;;;8.01;71.69;102611.19;5081336;28;20510;-60
2022/01/29 04:24:25;;;;;;;14.30;10.15;;;;;;;8.00;71.79;102606.84;5073215;28;20045;-60
2022/01/29 04:26:53;;;;;;;15.43;10.50;;;;;;;7.99;72.05;102613.19;5082340;28;20063;-59
2022/01/29 04:29:21;;;;;;;16.08;9.63;;;;;;;8.01;71.62;102595.13;5074588;28;20044;-60
2022/01/29 04:31:59;;;;;;;16.35;9.32;;;;;;;8.01;72.60;102599.66;5076673;28;20091;-60
2022/01/29 04:34:27;;;;;;;16.52;9.55;;;;;;;7.98;71.69;102591.94;5083702;28;20048;-60
2022/01/29 04:36:57;;;;;;;19.38;10.20;;;;;;;8.00;72.22;102597.97;5083961;28;20072;-60
2022/01/29 04:39:25;;;;;;;16.55;9.57;;;;;;;7.99;71.93;102591.78;5074428;28;20045;-60
2022/01/29 04:41:53;;;;;;;16.88;10.30;;;;;;;8.01;72.14;102599.66;5076595;28;20065;-58
2022/01/29 04:44:20;;;;;;;13.57;9.32;;;;;;;8.01;72.47;102592.44;5070998;28;20064;-59
2022/01/29 04:46:48;;;;;;;16.27;10.40;;;;;;;8.02;72.96;102587.94;5080534;28;20045;-60
2022/01/29 04:49:16;;;;;;;21.05;11.25;;;;;;;8.03;72.61;102601.16;5079476;28;20049;-60
2022/01/29 04:51:44;;;;;;;16.38;9.90;;;;;;;8.03;72.22;102589.63;5074231;28;20075;-60
2022/01/29 04:54:13;;;;;;;15.23;10.10;;;;;;;7.99;72.86;102588.25;5072621;28;20044;-60
2022/01/29 04:56:41;;;;;;;14.32;9.30;;;;;;;8.00;73.13;102584.59;5070863;28;20053;-59
2022/01/29 04:59:08;;;;;;;14.40;9.50;;;;;;;7.99;71.97;102583.75;5077373;28;20044;-60
2022/01/29 05:01:36;;;;;;;15.90;10.27;;;;;;;8.00;72.95;102582.75;5076608;28;20041;-60
2022/01/29 05:04:04;;;;;;;13.80;8.75;;;;;;;8.02;72.57;102577.22;5079630;28;20063;-60
2022/01/29 05:06:32;;;;;;;16.83;9.68;;;;;;;8.01;72.67;102570.19;5080005;28;20080;-58
2022/01/29 05:08:59;;;;;;;15.00;10.23;;;;;;;8.03;72.67;102573.56;5080687;28;20312;-59
2022/01/29 05:11:29;;;;;;;17.92;9.85;;;;;;;8.05;72.75;102569.72;5077466;28;20080;-59
2022/01/29 05:13:57;;;;;;;15.50;9.93;;;;;;;8.06;72.79;102567.88;5079708;28;20102;-59
2022/01/29 05:16:44;;;;;;;16.45;11.20;;;;;;;8.08;72.53;102560.50;5076857;28;20076;-60
2022/01/29 05:27:29;;;;;;;18.42;11.43;;;;;;;8.09;73.52;102548.81;5081022;28;20041;-59
2022/01/29 05:29:57;;;;;;;16.05;10.65;;;;;;;8.09;73.75;102546.97;5080240;28;20076;-60
2022/01/29 05:32:25;;;;;;;15.88;11.18;;;;;;;8.09;72.76;102549.63;5080110;28;20040;-59
2022/01/29 05:34:52;;;;;;;15.75;11.50;;;;;;;8.09;73.36;102538.09;5068781;28;20148;-60
2022/01/29 05:37:40;;;;;;;14.18;10.23;;;;;;;8.08;73.35;102539.94;5077107;28;20097;-58
2022/01/29 05:40:09;;;;;;;15.63;10.80;;;;;;;8.07;73.52;102546.28;5080819;28;20048;-59
2022/01/29 05:42:38;;;;;;;17.08;10.50;;;;;;;8.07;73.36;102540.94;5080668;28;20501;-60
2022/01/29 05:45:06;;;;;;;22.45;12.98;;;;;;;8.09;74.28;102541.59;5076428;28;20069;-59
2022/01/29 05:47:35;;;;;;;16.85;11.75;;;;;;;8.07;74.28;102537.41;5072608;28;20049;-59
2022/01/29 05:50:03;;;;;;;17.02;11.38;;;;;;;8.08;73.14;102539.94;5075624;28;20044;-60
2022/01/29 05:52:32;;;;;;;17.10;11.48;;;;;;;7.99;74.03;102529.38;5076629;28;20362;-59
2022/01/29 05:55:04;;;;;;;17.42;12.18;;;;;;;8.11;74.36;102544.13;5078655;28;20055;-59
2022/01/29 05:57:32;;;;;;;16.08;11.63;;;;;;;8.10;74.58;102550.47;5080170;28;20052;-59
2022/01/29 06:00:01;;;;;;;18.52;12.73;;;;;;;8.08;74.57;102533.75;5073982;28;20344;-59
2022/01/29 06:02:36;;;;;;;16.03;11.29;;;;;;;8.09;73.34;102527.38;4620114;28;10003546;-60
2022/01/29 06:05:04;;;;;;;17.55;10.60;;;;;;;8.20;73.23;102534.25;5069422;28;20044;-57
2022/01/29 06:07:32;;;;;;;16.02;10.43;;;;;;;8.34;72.57;102531.81;5074326;28;20040;-59
2022/01/29 06:10:00;;;;;;;17.08;10.95;;;;;;;8.46;71.82;102518.91;5077138;28;20049;-60
2022/01/29 06:12:36;;;;;;;17.00;11.02;;;;;;;8.53;71.51;102501.16;5067623;28;20176;-59
2022/01/29 06:15:06;;;;;;;15.25;10.60;;;;;;;8.76;71.43;102517.38;5071370;28;20604;-58
2022/01/29 06:17:34;;;;;;;19.98;10.20;;;;;;;8.93;71.17;102521.72;5073827;28;20306;-59
2022/01/29 06:20:01;;;;;;;19.90;11.60;;;;;;;9.07;71.23;102518.34;5077004;28;20048;-59
2022/01/29 06:22:29;;;;;;;13.80;10.32;;;;;;;9.22;69.57;102513.09;5075057;28;20077;-59
2022/01/29 06:24:57;;;;;;;16.23;11.35;;;;;;;9.33;69.79;102514.56;5067523;28;20152;-60
2022/01/29 06:27:25;;;;;;;15.27;10.18;;;;;;;9.48;68.45;102517.38;5076208;28;20063;-59
2022/01/29 06:29:53;;;;;;;13.00;10.23;;;;;;;9.56;69.31;102512.81;5071638;28;20052;-58
2022/01/29 06:32:22;;;;;;;14.55;10.15;;;;;;;9.64;67.99;102504.72;5072506;28;20080;-60
2022/01/29 06:34:50;;;;;;;12.82;9.50;;;;;;;9.71;67.46;102507.53;5076935;28;20088;-59
2022/01/29 06:37:18;;;;;;;13.57;9.05;;;;;;;9.67;68.36;102504.38;5065997;28;20071;-59
2022/01/29 06:39:49;;;;;;;14.50;9.40;;;;;;;9.57;68.85;102505.59;5075528;28;20052;-60
2022/01/29 06:42:17;;;;;;;15.70;9.32;;;;;;;9.46;69.38;102501.44;5078500;28;20079;-61
2022/01/29 06:44:45;;;;;;;17.38;10.73;;;;;;;9.30;70.02;102504.19;5077125;28;20068;-59
2022/01/29 06:47:12;;;;;;;15.38;10.02;;;;;;;9.17;70.74;102506.59;5078695;28;20083;-60
2022/01/29 06:49:41;;;;;;;15.80;10.10;;;;;;;9.09;70.77;102508.28;5075771;28;20076;-60
2022/01/29 06:52:09;;;;;;;18.55;10.13;;;;;;;8.99;70.96;102498.75;5076471;28;20182;-60
2022/01/29 06:54:37;;;;;;;13.55;9.52;;;;;;;8.94;72.33;102503.78;5080597;28;20565;-59
2022/01/29 06:57:05;;;;;;;17.98;10.52;;;;;;;8.88;72.42;102493.75;5079975;28;20062;-59
2022/01/29 06:59:33;;;;;;;16.95;11.02;;;;;;;8.82;72.10;102498.78;5076717;28;20049;-59
2022/01/29 07:02:01;;;;;;;13.38;9.77;;;;;;;8.79;71.61;102496.44;5078218;28;20077;-59
2022/01/29 07:04:28;;;;;;;15.35;10.18;;;;;;;8.77;72.27;102490.41;5076287;28;20086;-59
2022/01/29 07:06:57;;;;;;;14.40;10.68;;;;;;;8.72;72.77;102491.91;5076228;28;20292;-59
2022/01/29 07:09:26;;;;;;;13.55;9.63;;;;;;;8.67;72.81;102486.22;5076982;28;20190;-59
2022/01/29 07:11:56;;;;;;;13.57;9.55;;;;;;;8.66;72.90;102480.06;5080227;28;20084;-60
2022/01/29 07:14:24;;;;;;;12.15;9.35;;;;;;;8.64;72.66;102481.22;5075359;28;20044;-60
2022/01/29 07:16:52;;;;;;;12.05;9.10;;;;;;;8.63;72.74;102482.25;5078222;28;20510;-60
2022/01/29 07:19:20;;;;;;;13.20;10.10;;;;;;;8.63;73.03;102471.53;5076245;28;20407;-60
2022/01/29 07:21:47;;;;;;;15.85;9.75;;;;;;;8.60;73.90;102474.53;5079535;28;20541;-59
2022/01/29 07:24:17;;;;;;;12.52;8.95;;;;;;;8.58;74.17;102468.50;5069398;28;20052;-61
2022/01/29 07:26:44;;;;;;;12.48;9.73;;;;;;;8.57;73.35;102469.50;5072153;28;20052;-58
2022/01/29 07:29:12;;;;;;;13.57;9.90;;;;;;;8.54;72.82;102472.53;5078889;28;20090;-59
2022/01/29 07:31:40;;;;;;;12.73;9.48;;;;;;;8.53;72.31;102477.06;5079057;28;20041;-60
2022/01/29 07:34:07;;;;;;;12.40;9.05;;;;;;;8.51;72.93;102475.53;5071790;28;20135;-61
2022/01/29 07:36:35;;;;;;;13.63;9.57;;;;;;;8.48;72.97;102472.19;5065687;28;20453;-61
2022/01/29 07:39:03;;;;;;;15.63;9.68;;;;;;;8.47;73.86;102465.16;5078139;28;20048;-60
2022/01/29 07:41:33;;;;;;;13.27;10.10;;;;;;;8.54;74.76;102469.84;5079641;28;20462;-61
2022/01/29 07:44:01;;;;;;;12.85;9.55;;;;;;;8.51;74.41;102479.06;5078951;28;20044;-60
2022/01/29 07:46:28;;;;;;;14.95;9.82;;;;;;;8.50;73.58;102476.56;5080034;28;20127;-60
2022/01/29 07:48:56;;;;;;;14.25;9.55;;;;;;;8.52;74.84;102475.38;5079478;28;20098;-60
2022/01/29 07:51:24;;;;;;;14.77;8.77;;;;;;;8.50;74.55;102469.34;5074965;28;20090;-58
2022/01/29 07:53:52;;;;;;;15.07;9.98;;;;;;;8.52;75.13;102466.50;5074427;28;20149;-58
2022/01/29 07:56:20;;;;;;;15.38;11.00;;;;;;;8.52;76.08;102470.03;5078272;28;20079;-58
2022/01/29 07:58:50;;;;;;;14.40;10.23;;;;;;;8.54;75.23;102467.16;5084182;28;20076;-65
2022/01/29 08:01:18;;;;;;;17.15;9.30;;;;;;;8.61;74.36;102460.13;5083444;28;20078;-59
2022/01/29 08:03:48;;;;;;;19.30;10.13;;;;;;;8.56;74.46;102454.44;5072462;28;20420;-63
2022/01/29 08:06:16;;;;;;;14.07;9.73;;;;;;;8.55;74.67;102452.78;5077410;28;20079;-60
2022/01/29 08:08:44;;;;;;;11.93;8.15;;;;;;;8.54;74.69;102451.94;5069135;28;20060;-59
2022/01/29 08:11:13;;;;;;;13.43;10.02;;;;;;;8.53;75.06;102460.97;5077345;28;20221;-60
2022/01/29 08:13:41;;;;;;;13.00;9.63;;;;;;;8.55;75.20;102450.09;5079018;28;20041;-60
2022/01/29 08:16:10;;;;;;;14.98;9.73;;;;;;;8.55;75.37;102448.25;5068822;28;20048;-60
2022/01/29 08:18:38;;;;;;;13.93;9.40;;;;;;;8.64;74.84;102451.75;5058740;28;20045;-60
2022/01/29 08:21:05;;;;;;;12.80;9.15;;;;;;;8.78;74.55;102451.03;5078772;28;20078;-59
2022/01/29 08:23:33;;;;;;;12.05;8.43;;;;;;;8.90;73.91;102438.94;5064594;28;20076;-59
2022/01/29 08:26:01;;;;;;;13.70;9.20;;;;;;;9.11;72.39;102441.88;5071947;28;20076;-62
2022/01/29 08:28:29;;;;;;;12.48;8.75;;;;;;;9.27;72.97;102445.50;5058476;28;20918;-61
2022/01/29 08:30:56;;;;;;;11.63;7.80;;;;;;;9.40;72.25;102435.91;5076476;28;20083;-63
2022/01/29 08:33:26;;;;;;;11.27;8.88;;;;;;;9.54;72.16;102430.78;5076951;28;20048;-59
2022/01/29 08:35:53;;;;;;;15.60;8.38;;;;;;;9.66;72.10;102422.16;5078276;28;20080;-61
2022/01/29 08:38:21;;;;;;;13.25;8.05;;;;;;;9.82;71.22;102426.59;5075578;28;20071;-60
2022/01/29 08:40:51;;;;;;;10.13;7.85;;;;;;;9.96;70.61;102427.69;5069610;28;20041;-60
2022/01/29 08:43:18;;;;;;;11.80;8.20;;;;;;;10.05;70.13;102418.53;5074859;28;20048;-59
2022/01/29 08:45:46;;;;;;;14.15;7.43;;;;;;;10.06;69.69;102418.38;5078756;28;20096;-59
2022/01/29 08:48:14;;;;;;;8.13;6.63;;;;;;;10.02;69.81;102411.69;5078107;28;20512;-59
2022/01/29 08:50:43;;;;;;;11.38;7.18;;;;;;;9.98;70.12;102417.59;5070444;28;20110;-59
2022/01/29 08:53:16;;;;;;;13.15;6.88;;;;;;;9.84;70.97;102408.47;5060275;28;20055;-59
2022/01/29 08:55:43;;;;;;;10.73;7.43;;;;;;;9.70;71.21;102410.06;5068968;28;20083;-59
2022/01/29 08:58:12;;;;;;;9.60;7.18;;;;;;;9.55;71.54;102405.63;5078620;28;20408;-59
2022/01/29 09:00:42;;;;;;;10.20;7.55;;;;;;;9.51;72.91;102413.19;5078780;28;20055;-59
2022/01/29 09:03:10;;;;;;;10.35;8.52;;;;;;;9.45;72.92;102411.22;5076537;28;20045;-60
2022/01/29 09:05:38;;;;;;;9.93;7.50;;;;;;;9.43;73.09;102402.50;5074987;28;20048;-59
2022/01/29 09:08:07;;;;;;;9.05;6.38;;;;;;;9.36;72.24;102404.22;5077138;28;20052;-59
2022/01/29 09:10:35;;;;;;;14.27;7.20;;;;;;;9.32;73.38;102405.59;5075564;28;20060;-59
2022/01/29 09:13:03;;;;;;;16.35;8.27;;;;;;;9.27;73.28;102400.75;5069371;28;20106;-61
2022/01/29 09:15:31;;;;;;;12.48;7.70;;;;;;;9.23;73.45;102406.63;5074737;28;20052;-60
2022/01/29 09:17:59;;;;;;;10.85;7.95;;;;;;;9.19;73.41;102408.00;5077950;28;20078;-60
2022/01/29 09:20:27;;;;;;;11.60;6.90;;;;;;;9.16;73.79;102390.41;5075362;28;20142;-61
2022/01/29 09:22:55;;;;;;;9.40;6.90;;;;;;;9.13;74.08;102396.13;5075454;28;20052;-60
2022/01/29 09:25:25;;;;;;;9.90;7.07;;;;;;;9.09;73.96;102394.78;5076202;28;20083;-63
2022/01/29 09:27:53;;;;;;;12.88;7.20;;;;;;;9.08;74.09;102390.44;5074874;28;20037;-61
2022/01/29 09:30:21;;;;;;;12.23;7.82;;;;;;;9.07;73.99;102394.97;5076874;28;20549;-61
2022/01/29 09:32:49;;;;;;;10.35;6.78;;;;;;;9.05;73.58;102396.16;5077474;28;20049;-60
2022/01/29 09:35:19;;;;;;;9.75;6.55;;;;;;;9.06;73.65;102400.50;5077358;28;20162;-60
2022/01/29 09:37:47;;;;;;;8.68;6.55;;;;;;;9.06;73.28;102395.13;5075943;28;20063;-60
2022/01/29 09:40:18;;;;;;;9.70;6.82;;;;;;;9.07;73.96;102397.66;5071287;28;20087;-60
2022/01/29 09:42:50;;;;;;;11.00;6.97;;;;;;;9.09;74.09;102401.00;5077792;28;20137;-60
2022/01/29 09:45:19;;;;;;;11.20;6.95;;;;;;;9.15;74.53;102410.19;5075215;28;20079;-61
2022/01/29 09:47:48;;;;;;;8.70;6.65;;;;;;;9.10;74.50;102397.31;5082624;28;20193;-61
2022/01/29 09:50:19;;;;;;;11.07;7.63;;;;;;;9.14;75.35;102409.34;5077002;28;20040;-60
2022/01/29 09:52:47;;;;;;;9.40;6.55;;;;;;;9.10;75.38;102396.47;5071616;28;20314;-59
2022/01/29 09:55:15;;;;;;;11.63;7.10;;;;;;;9.09;75.07;102400.16;5081762;28;20264;-59
2022/01/29 09:57:42;;;;;;;8.98;7.10;;;;;;;9.07;75.39;102396.81;5080303;28;20059;-59
2022/01/29 10:00:13;;;;;;;13.35;8.10;;;;;;;9.07;75.33;102391.44;5086369;28;20040;-60
2022/01/29 10:02:40;;;;;;;9.25;6.75;;;;;;;9.10;74.35;102397.31;5085353;28;20334;-60
2022/01/29 10:05:11;;;;;;;9.10;6.32;;;;;;;9.08;74.70;102403.84;5085308;28;20051;-60
2022/01/29 10:07:39;;;;;;;10.00;5.60;;;;;;;9.07;75.06;102408.38;5078681;28;20044;-60
2022/01/29 10:10:18;;;;;;;9.68;6.75;;;;;;;9.09;74.89;102402.84;5073794;28;20105;-60
2022/01/29 10:12:46;;;;;;;9.70;7.03;;;;;;;9.07;74.67;102396.81;5082667;28;20056;-59
2022/01/29 10:15:15;;;;;;;10.68;6.28;;;;;;;9.07;75.44;102394.97;5062901;28;20049;-65
2022/01/29 10:17:46;;;;;;;9.13;6.82;;;;;;;9.07;75.68;102388.75;5075259;28;20180;-59
2022/01/29 10:20:17;;;;;;;10.45;7.13;;;;;;;9.07;75.10;102394.97;5075145;28;20332;-60
2022/01/29 10:22:47;;;;;;;9.75;6.47;;;;;;;9.10;75.22;102391.94;5085482;28;20571;-59
2022/01/29 10:25:17;;;;;;;10.88;6.78;;;;;;;9.13;74.91;102383.53;5072693;28;20040;-60
2022/01/29 10:28:09;;;;;;;7.65;6.32;;;;;;;9.11;75.58;102385.56;5078815;28;20048;-60
2022/01/29 10:30:56;;;;;;;11.13;6.40;;;;;;;9.11;74.93;102380.19;5081146;28;20060;-59
2022/01/29 10:33:27;;;;;;;10.02;6.38;;;;;;;9.10;75.53;102372.31;5081559;28;20053;-60
2022/01/29 10:35:57;;;;;;;11.43;6.22;;;;;;;9.12;75.56;102363.09;4724639;28;10000669;-60
2022/01/29 10:38:26;;;;;;;10.20;6.43;;;;;;;9.12;75.98;102364.94;5077242;28;20164;-60
2022/01/29 10:41:20;;;;;;;11.35;7.05;;;;;;;9.12;75.70;102351.53;5082821;28;20044;-59
2022/01/29 10:44:12;;;;;;;10.65;6.75;;;;;;;9.14;75.63;102336.94;5075797;28;20053;-60
2022/01/29 10:46:46;;;;;;;9.30;6.43;;;;;;;9.14;75.69;102338.78;5077027;28;20048;-59
2022/01/29 10:49:23;;;;;;;10.30;6.28;;;;;;;9.15;75.32;102335.09;5075137;28;20104;-60
2022/01/29 10:51:54;;;;;;;;;;;;;;;9.13;75.88;102327.22;5076321;28;20049;-63
2022/01/29 10:54:23;;;;;;;9.65;6.05;;;;;;;9.15;75.72;102332.41;5078321;28;19931;-60
2022/01/29 10:56:57;;;;;;;9.40;6.18;;;;;;;9.24;75.72;102325.97;5078027;28;20384;-60
2022/01/29 10:59:26;;;;;;;7.93;5.88;;;;;;;9.22;75.01;102317.28;5080122;28;20958;-60
2022/01/29 11:01:57;;;;;;;7.20;5.50;;;;;;;9.21;75.03;102325.50;5074492;28;20040;-59
2022/01/29 11:04:28;;;;;;;10.10;6.03;;;;;;;9.22;75.20;102321.81;5076394;28;20056;-60
2022/01/29 11:06:58;;;;;;;8.98;6.20;;;;;;;9.18;76.12;102326.69;5076361;28;20075;-60
2022/01/29 11:09:28;;;;;;;6.68;5.25;;;;;;;9.19;75.96;102323.00;5075872;28;20056;-59
2022/01/29 11:11:57;;;;;;;6.45;4.80;;;;;;;9.21;75.23;102322.81;5075461;28;20575;-59
2022/01/29 11:14:27;;;;;;;7.38;4.75;;;;;;;9.24;75.60;102325.16;5072644;28;20526;-59
2022/01/29 11:16:56;;;;;;;9.98;5.35;;;;;;;9.23;75.01;102316.25;4727847;28;9999689;-60
2022/01/29 11:19:24;;;;;;;6.97;4.93;;;;;;;9.23;75.09;102313.59;5064497;28;20048;-59
2022/01/29 11:21:53;;;;;;;7.18;5.53;;;;;;;9.25;74.92;102316.09;5089601;28;20036;-60
2022/01/29 11:24:24;;;;;;;7.15;4.90;;;;;;;9.25;75.21;102302.69;5086156;28;20048;-59
2022/01/29 11:26:52;;;;;;;7.55;5.65;;;;;;;9.28;75.45;102302.31;5065547;28;20048;-59
2022/01/29 11:29:31;;;;;;;6.45;4.57;;;;;;;9.29;75.51;102304.81;5077667;28;20045;-59
2022/01/29 11:32:27;;;;;;;8.70;5.40;;;;;;;9.31;74.94;102294.75;5082749;28;20094;-59
2022/01/29 11:35:20;;;;;;;5.45;4.15;;;;;;;9.36;74.44;102275.44;5078997;28;20059;-59
2022/01/29 11:37:54;;;;;;;8.52;5.30;;;;;;;9.43;74.65;102287.97;4722303;28;10000592;-60
2022/01/29 11:40:28;;;;;;;7.75;4.72;;;;;;;9.37;74.89;102288.66;5069243;28;20041;-59